createdAt,value
2022-10-14T00:00:21.149Z,19.92
2022-10-14T00:05:22.937Z,16.38
2022-10-14T00:10:25.116Z,18.10
2022-10-14T00:15:26.997Z,27.83
2022-10-14T00:20:29.756Z,19.63
2022-10-14T00:25:31.974Z,17.13
2022-10-14T00:30:33.775Z,21.20
2022-10-14T00:35:38.241Z,23.23
2022-10-14T00:40:40.059Z,21.85
2022-10-14T00:45:42.687Z,18.73
2022-10-14T00:50:47.110Z,23.80
2022-10-14T00:55:49.313Z,24.20
2022-10-14T01:00:51.218Z,22.42
2022-10-14T01:06:01.204Z,26.35
2022-10-14T01:11:35.630Z,24.15
2022-10-14T01:17:10.130Z,23.20
2022-10-14T01:22:44.682Z,31.00
2022-10-14T01:28:12.704Z,27.45
2022-10-14T01:33:21.877Z,21.83
2022-10-14T01:38:51.659Z,25.27
2022-10-14T01:43:57.825Z,22.63
2022-10-14T01:49:08.154Z,28.20
2022-10-14T01:54:20.412Z,22.77
2022-10-14T01:59:23.941Z,25.80
2022-10-14T02:04:25.820Z,18.75
2022-10-14T02:09:53.752Z,20.98
2022-10-14T02:15:03.975Z,23.92
2022-10-14T02:20:20.312Z,21.45
2022-10-14T02:25:32.014Z,20.83
2022-10-14T02:30:49.962Z,25.38
2022-10-14T02:35:54.646Z,21.52
2022-10-14T02:41:02.048Z,24.00
2022-10-14T02:46:05.383Z,24.05
2022-10-14T02:51:07.560Z,30.23
2022-10-14T02:56:17.013Z,19.17
2022-10-14T03:01:19.850Z,19.50
2022-10-14T03:06:21.799Z,23.35
2022-10-14T03:11:24.744Z,17.05
2022-10-14T03:16:29.289Z,21.70
2022-10-14T03:21:31.917Z,17.70
2022-10-14T03:26:33.758Z,20.27
2022-10-14T03:31:35.567Z,18.45
2022-10-14T03:36:56.107Z,16.83
2022-10-14T03:42:01.591Z,16.20
2022-10-14T03:47:09.984Z,17.52
2022-10-14T03:52:12.576Z,21.33
2022-10-14T03:57:16.871Z,19.88
2022-10-14T04:02:25.345Z,66.45
2022-10-14T04:07:31.140Z,24.08
2022-10-14T04:12:34.690Z,79.57
2022-10-14T04:17:44.110Z,50.40
2022-10-14T04:22:49.232Z,25.67
2022-10-14T04:27:53.151Z,28.35
2022-10-14T04:32:56.751Z,31.33
2022-10-14T04:37:58.663Z,20.92
2022-10-14T04:43:03.892Z,26.25
2022-10-14T04:53:21.955Z,29.88
2022-10-14T04:58:37.084Z,33.53
2022-10-14T05:03:38.975Z,36.40
2022-10-14T05:08:40.882Z,33.00
2022-10-14T05:13:45.848Z,36.20
2022-10-14T05:18:47.731Z,43.65
2022-10-14T05:23:49.852Z,37.45
2022-10-14T05:28:52.765Z,40.78
2022-10-14T05:33:55.991Z,39.78
2022-10-14T05:38:58.829Z,40.17
2022-10-14T05:44:06.379Z,36.60
2022-10-14T05:49:11.275Z,34.78
2022-10-14T05:54:13.842Z,47.50
2022-10-14T05:59:17.861Z,40.80
2022-10-14T06:04:20.939Z,47.92
2022-10-14T06:09:23.272Z,43.00
2022-10-14T06:14:25.108Z,47.55
2022-10-14T06:19:27.502Z,45.35
2022-10-14T06:24:29.263Z,48.92
2022-10-14T06:29:37.657Z,47.08
2022-10-14T06:34:39.394Z,55.92
2022-10-14T06:39:43.074Z,48.55
2022-10-14T06:44:45.324Z,42.08
2022-10-14T06:49:47.094Z,46.53
2022-10-14T06:54:49.106Z,50.97
2022-10-14T06:59:50.860Z,49.28
2022-10-14T07:04:52.624Z,53.10
2022-10-14T07:09:54.580Z,54.33
2022-10-14T07:14:56.993Z,45.10
2022-10-14T07:19:58.745Z,45.05
2022-10-14T07:25:00.491Z,48.38
2022-10-14T07:30:02.371Z,52.30
2022-10-14T07:35:04.818Z,57.42
2022-10-14T07:40:07.367Z,56.08
2022-10-14T07:45:10.576Z,48.95
2022-10-14T07:50:12.374Z,56.20
2022-10-14T07:55:14.116Z,58.97
2022-10-14T08:00:16.140Z,70.75
2022-10-14T08:05:37.095Z,55.25
2022-10-14T08:10:40.616Z,60.60
2022-10-14T08:15:43.261Z,49.10
2022-10-14T08:20:45.014Z,68.72
2022-10-14T08:25:50.633Z,74.78
2022-10-14T08:30:53.324Z,53.20
2022-10-14T08:35:55.237Z,47.95
2022-10-14T08:41:11.949Z,56.42
2022-10-14T08:46:39.507Z,59.33
2022-10-14T08:51:45.184Z,55.95
2022-10-14T08:56:47.031Z,45.72
2022-10-14T09:01:55.571Z,44.47
2022-10-14T09:06:57.555Z,43.17
2022-10-14T09:12:07.147Z,49.60
2022-10-14T09:17:27.505Z,52.40
2022-10-14T09:22:29.299Z,52.95
2022-10-14T09:27:31.618Z,46.53
2022-10-14T09:32:41.755Z,44.30
2022-10-14T09:37:43.495Z,50.67
2022-10-14T09:42:55.274Z,38.97
2022-10-14T09:48:03.712Z,38.60
2022-10-14T09:53:14.851Z,42.38
2022-10-14T09:58:31.811Z,42.10
2022-10-14T10:03:35.566Z,39.40
2022-10-14T10:08:58.191Z,41.38
2022-10-14T10:14:24.793Z,36.75
2022-10-14T10:19:29.416Z,31.20
2022-10-14T10:24:32.894Z,29.33
2022-10-14T10:29:35.283Z,27.02
2022-10-14T10:35:07.216Z,28.27
2022-10-14T10:40:39.221Z,28.42
2022-10-14T10:46:07.576Z,26.10
2022-10-14T10:51:16.870Z,22.27
2022-10-14T10:56:41.259Z,27.02
2022-10-14T11:01:56.501Z,29.85
2022-10-14T11:07:27.020Z,22.60
2022-10-14T11:12:46.024Z,27.02
2022-10-14T11:18:29.205Z,24.05
2022-10-14T11:23:50.272Z,23.00
2022-10-14T11:29:20.575Z,22.20
2022-10-14T11:34:34.663Z,23.73
2022-10-14T11:39:42.500Z,19.23
2022-10-14T11:45:30.661Z,24.25
2022-10-14T11:50:39.330Z,20.98
2022-10-14T11:55:45.977Z,23.45
2022-10-14T12:01:01.680Z,20.23
2022-10-14T12:06:19.083Z,19.88
2022-10-14T12:11:40.372Z,22.00
2022-10-14T12:16:45.048Z,20.67
2022-10-14T12:21:55.993Z,13.10
2022-10-14T12:27:05.889Z,21.15
2022-10-14T12:32:22.706Z,16.33
2022-10-14T12:37:40.369Z,14.73
2022-10-14T13:01:22.791Z,7.55
2022-10-14T13:06:37.199Z,10.90
2022-10-14T13:11:44.058Z,11.68
2022-10-14T13:16:46.844Z,11.65
2022-10-14T13:21:53.475Z,10.43
2022-10-14T13:27:09.271Z,11.27
2022-10-14T13:32:38.809Z,9.95
2022-10-14T13:38:13.512Z,15.57
2022-10-14T13:43:32.561Z,14.85
2022-10-14T13:48:44.284Z,11.35
2022-10-14T13:54:00.757Z,10.32
2022-10-14T13:59:08.015Z,12.68
2022-10-14T14:04:27.836Z,10.13
2022-10-14T14:09:31.514Z,6.90
2022-10-14T14:14:35.821Z,5.63
2022-10-14T14:19:38.135Z,5.93
2022-10-14T14:24:39.928Z,13.07
2022-10-14T14:29:44.066Z,6.32
2022-10-14T14:34:48.876Z,7.88
2022-10-14T14:40:24.606Z,9.45
2022-10-14T14:45:33.835Z,7.60
2022-10-14T14:50:45.118Z,8.73
2022-10-14T14:55:56.696Z,8.98
2022-10-14T15:00:59.194Z,11.95
2022-10-14T15:06:06.787Z,9.55
2022-10-14T15:11:15.206Z,8.98
2022-10-14T15:16:44.918Z,10.15
2022-10-14T15:22:11.683Z,11.85
2022-10-14T15:27:40.830Z,10.30
2022-10-14T15:33:02.004Z,7.95
2022-10-14T15:38:16.177Z,12.13
2022-10-14T15:43:21.498Z,7.38
2022-10-14T15:48:23.282Z,8.23
2022-10-14T15:53:25.592Z,8.18
2022-10-14T15:58:27.527Z,9.18
2022-10-14T16:03:34.550Z,10.48
2022-10-14T16:08:38.680Z,10.50
2022-10-14T16:13:44.148Z,8.30
2022-10-14T16:18:45.955Z,8.82
2022-10-14T16:23:47.793Z,9.82
2022-10-14T16:28:49.827Z,7.43
2022-10-14T16:33:55.770Z,10.70
2022-10-14T16:38:57.596Z,11.50
2022-10-14T16:44:04.287Z,10.65
2022-10-14T16:49:07.200Z,10.85
2022-10-14T16:54:09.361Z,8.52
2022-10-14T16:59:12.796Z,10.02
2022-10-14T17:04:15.084Z,12.23
2022-10-14T17:09:17.879Z,10.38
2022-10-14T17:14:22.935Z,10.20
2022-10-14T17:19:24.783Z,10.75
2022-10-14T17:24:26.716Z,12.02
2022-10-14T17:29:29.380Z,16.75
2022-10-14T17:34:31.913Z,16.13
2022-10-14T17:39:37.755Z,12.35
2022-10-14T17:44:43.408Z,9.88
2022-10-14T17:49:46.392Z,12.32
2022-10-14T17:54:48.169Z,12.88
2022-10-14T17:59:49.975Z,12.20
2022-10-14T18:04:51.807Z,11.73
2022-10-14T18:09:53.568Z,12.48
2022-10-14T18:14:55.567Z,12.82
2022-10-14T18:19:57.351Z,14.50
2022-10-14T18:24:59.303Z,12.60
2022-10-14T18:30:01.129Z,10.10
2022-10-14T18:35:05.630Z,14.52
2022-10-14T18:40:08.019Z,11.43
2022-10-14T18:45:10.010Z,10.95
2022-10-14T18:50:11.807Z,13.02
2022-10-14T18:55:13.618Z,10.23
2022-10-14T19:00:16.240Z,8.10
2022-10-14T19:05:18.024Z,11.95
2022-10-14T19:10:19.739Z,12.35
2022-10-14T19:15:26.070Z,17.83
2022-10-14T19:20:27.970Z,13.23
2022-10-14T19:25:32.416Z,13.18
2022-10-14T19:30:34.229Z,10.90
2022-10-14T19:35:36.051Z,14.98
2022-10-14T19:40:37.801Z,16.20
2022-10-14T19:45:44.696Z,11.45
2022-10-14T19:50:48.851Z,19.17
2022-10-14T19:55:50.622Z,10.65
2022-10-14T20:00:52.384Z,10.70
2022-10-14T20:06:01.238Z,9.90
2022-10-14T20:11:05.238Z,13.80
2022-10-14T20:16:09.235Z,12.95
2022-10-14T20:21:13.668Z,9.40
2022-10-14T20:26:21.164Z,12.20
2022-10-14T20:31:25.378Z,11.20
2022-10-14T20:36:27.790Z,9.02
2022-10-14T20:41:29.516Z,11.60
2022-10-14T20:46:31.289Z,11.68
2022-10-14T20:51:33.147Z,14.63
2022-10-14T20:56:36.715Z,13.05
2022-10-14T21:01:38.881Z,8.27
2022-10-14T21:06:41.154Z,13.02
2022-10-14T21:11:43.126Z,10.20
2022-10-14T21:16:45.176Z,11.90
2022-10-14T21:21:49.223Z,11.50
2022-10-14T21:26:51.955Z,12.10
2022-10-14T21:31:53.756Z,13.43
2022-10-14T21:36:56.070Z,16.05
2022-10-14T21:42:01.098Z,11.75
2022-10-14T21:47:03.351Z,13.23
2022-10-14T21:52:05.240Z,13.32
2022-10-14T21:57:07.016Z,11.38
2022-10-14T22:02:08.967Z,15.45
2022-10-14T22:07:10.743Z,12.05
2022-10-14T22:12:14.712Z,11.13
2022-10-14T22:17:16.610Z,10.20
2022-10-14T22:22:18.364Z,10.05
2022-10-14T22:27:20.414Z,9.68
2022-10-14T22:32:23.094Z,9.35
2022-10-14T22:37:25.373Z,10.10
2022-10-14T22:47:34.051Z,10.05
2022-10-14T22:52:35.823Z,13.00
2022-10-14T22:57:37.614Z,14.65
2022-10-14T23:02:39.400Z,19.35
2022-10-14T23:07:41.343Z,12.98
2022-10-14T23:12:43.333Z,11.02
2022-10-14T23:17:45.168Z,15.00
2022-10-14T23:22:47.212Z,19.73
2022-10-14T23:32:51.682Z,16.10
2022-10-14T23:37:53.688Z,17.38
2022-10-14T23:42:55.472Z,15.02
2022-10-14T23:47:57.212Z,16.20
2022-10-14T23:52:59.765Z,14.18
2022-10-14T23:58:01.555Z,15.43
